createdAt,value
2018-06-30T00:02:23.802Z,64.79
2018-06-30T00:04:53.334Z,64.91
2018-06-30T00:07:23.436Z,65.50
2018-06-30T00:09:52.071Z,65.14
2018-06-30T00:12:20.760Z,65.33
2018-06-30T00:14:49.416Z,65.50
2018-06-30T00:17:18.378Z,65.96
2018-06-30T00:19:47.022Z,66.20
2018-06-30T00:22:15.782Z,65.69
2018-06-30T00:24:44.945Z,65.38
2018-06-30T00:27:18.856Z,65.39
2018-06-30T00:29:47.922Z,64.91
2018-06-30T00:32:16.573Z,65.56
2018-06-30T00:34:45.843Z,65.46
2018-06-30T00:37:15.496Z,65.67
2018-06-30T00:39:44.186Z,66.38
2018-06-30T00:42:12.923Z,66.42
2018-06-30T00:44:42.162Z,65.83
2018-06-30T00:47:10.855Z,66.17
2018-06-30T00:49:39.972Z,65.97
2018-06-30T00:52:08.984Z,65.80
2018-06-30T00:54:38.314Z,65.92
2018-06-30T00:57:06.999Z,66.26
2018-06-30T00:59:35.757Z,66.22
2018-06-30T01:02:05.318Z,65.85
2018-06-30T01:04:34.093Z,66.04
2018-06-30T01:07:03.014Z,66.28
2018-06-30T01:09:31.724Z,66.89
2018-06-30T01:12:00.701Z,66.48
2018-06-30T01:14:29.806Z,66.90
2018-06-30T01:16:58.621Z,66.61
2018-06-30T01:19:27.248Z,66.73
2018-06-30T01:21:56.680Z,66.90
2018-06-30T01:24:26.130Z,67.28
2018-06-30T01:26:55.386Z,67.65
2018-06-30T01:29:23.999Z,69.44
2018-06-30T01:31:52.685Z,68.33
2018-06-30T01:34:21.307Z,67.93
2018-06-30T01:36:50.009Z,67.81
2018-06-30T01:39:19.566Z,67.74
2018-06-30T01:41:49.163Z,67.83
2018-06-30T01:44:18.093Z,67.67
2018-06-30T01:46:46.966Z,67.53
2018-06-30T01:49:15.587Z,68.01
2018-06-30T01:51:44.244Z,68.21
2018-06-30T01:54:13.711Z,68.15
2018-06-30T01:56:42.356Z,68.21
2018-06-30T01:59:11.280Z,68.25
2018-06-30T02:01:40.263Z,68.40
2018-06-30T02:04:08.979Z,67.90
2018-06-30T02:06:38.356Z,67.68
2018-06-30T02:09:09.232Z,67.12
2018-06-30T02:11:37.923Z,67.71
2018-06-30T02:14:06.860Z,67.31
2018-06-30T02:16:35.567Z,67.39
2018-06-30T02:19:04.579Z,67.55
2018-06-30T02:21:33.838Z,67.61
2018-06-30T02:24:03.155Z,67.66
2018-06-30T02:26:31.845Z,67.47
2018-06-30T02:29:00.633Z,67.40
2018-06-30T02:31:29.399Z,67.74
2018-06-30T02:33:58.103Z,67.88
2018-06-30T02:36:26.916Z,68.01
2018-06-30T02:38:56.171Z,68.51
2018-06-30T02:41:25.010Z,68.75
2018-06-30T02:43:53.709Z,68.75
2018-06-30T02:46:24.250Z,68.73
2018-06-30T02:48:52.857Z,68.96
2018-06-30T02:51:21.622Z,69.60
2018-06-30T02:53:50.919Z,70.29
2018-06-30T02:56:20.071Z,70.69
2018-06-30T02:58:48.645Z,70.77
2018-06-30T03:01:22.666Z,70.33
2018-06-30T03:03:51.395Z,70.15
2018-06-30T03:06:20.419Z,70.32
2018-06-30T03:08:49.202Z,70.16
2018-06-30T03:11:17.851Z,70.18
2018-06-30T03:13:47.344Z,70.12
2018-06-30T03:16:17.529Z,70.08
2018-06-30T03:18:47.715Z,69.62
2018-06-30T03:21:16.372Z,69.46
2018-06-30T03:23:45.094Z,69.33
2018-06-30T03:26:14.123Z,69.11
2018-06-30T03:28:43.685Z,69.62
2018-06-30T03:31:12.310Z,69.57
2018-06-30T03:33:40.974Z,69.65
2018-06-30T03:36:09.713Z,69.91
2018-06-30T03:38:38.767Z,69.79
2018-06-30T03:41:07.415Z,69.86
2018-06-30T03:43:36.597Z,68.97
2018-06-30T03:46:05.586Z,69.50
2018-06-30T03:48:35.374Z,69.04
2018-06-30T03:51:04.031Z,68.99
2018-06-30T03:53:32.826Z,69.31
2018-06-30T03:56:01.589Z,69.23
2018-06-30T03:58:31.392Z,69.10
2018-06-30T04:01:00.066Z,69.19
2018-06-30T04:03:28.763Z,69.70
2018-06-30T04:05:57.721Z,69.40
2018-06-30T04:08:26.461Z,69.79
2018-06-30T04:10:55.439Z,70.41
2018-06-30T04:13:24.048Z,70.31
2018-06-30T04:15:53.439Z,70.49
2018-06-30T04:18:22.070Z,70.88
2018-06-30T04:20:50.831Z,70.52
2018-06-30T04:23:19.575Z,70.34
2018-06-30T04:25:48.238Z,69.63
2018-06-30T04:28:16.941Z,69.83
2018-06-30T04:30:45.649Z,70.01
2018-06-30T04:33:14.278Z,70.28
2018-06-30T04:35:44.352Z,70.07
2018-06-30T04:38:12.958Z,70.10
2018-06-30T04:40:41.947Z,70.84
2018-06-30T04:43:10.650Z,70.24
2018-06-30T04:45:39.314Z,70.36
2018-06-30T04:48:08.607Z,70.40
2018-06-30T04:50:37.492Z,70.83
2018-06-30T04:53:06.245Z,70.96
2018-06-30T04:55:35.030Z,70.62
2018-06-30T04:58:03.815Z,70.19
2018-06-30T05:00:32.464Z,69.97
2018-06-30T05:03:01.610Z,70.58
2018-06-30T05:05:30.461Z,70.33
2018-06-30T05:07:59.100Z,70.45
2018-06-30T05:10:28.337Z,70.44
2018-06-30T05:12:57.281Z,70.32
2018-06-30T05:15:26.977Z,71.53
2018-06-30T05:17:55.705Z,71.45
2018-06-30T05:20:25.252Z,71.31
2018-06-30T05:22:54.099Z,70.86
2018-06-30T05:25:22.923Z,70.90
2018-06-30T05:27:51.562Z,71.21
2018-06-30T05:30:20.380Z,71.02
2018-06-30T05:32:49.440Z,71.19
2018-06-30T05:35:18.392Z,71.60
2018-06-30T05:37:47.216Z,70.83
2018-06-30T05:40:16.338Z,71.24
2018-06-30T05:42:46.295Z,70.78
2018-06-30T05:45:15.170Z,70.66
2018-06-30T05:47:44.436Z,70.81
2018-06-30T05:50:13.145Z,70.03
2018-06-30T05:52:42.273Z,69.42
2018-06-30T05:55:10.985Z,70.55
2018-06-30T05:57:39.840Z,70.36
2018-06-30T06:00:08.737Z,69.69
2018-06-30T06:02:37.589Z,69.46
2018-06-30T06:05:07.086Z,69.44
2018-06-30T06:07:35.880Z,69.31
2018-06-30T06:10:05.154Z,68.50
2018-06-30T06:12:33.814Z,68.70
2018-06-30T06:15:02.544Z,68.39
2018-06-30T06:17:32.342Z,68.59
2018-06-30T06:20:01.049Z,68.67
2018-06-30T06:22:29.701Z,68.78
2018-06-30T06:24:58.467Z,68.36
2018-06-30T06:27:27.522Z,68.17
2018-06-30T06:29:56.231Z,67.71
2018-06-30T06:32:24.950Z,68.42
2018-06-30T06:34:53.814Z,68.10
2018-06-30T06:37:22.499Z,68.49
2018-06-30T06:39:51.546Z,68.47
2018-06-30T06:42:20.527Z,69.07
2018-06-30T06:44:49.209Z,68.89
2018-06-30T06:47:17.859Z,69.33
2018-06-30T06:49:47.151Z,68.29
2018-06-30T06:52:15.949Z,68.07
2018-06-30T06:54:46.327Z,68.11
2018-06-30T06:57:15.760Z,67.76
2018-06-30T06:59:44.469Z,68.12
2018-06-30T07:02:13.138Z,67.13
2018-06-30T07:04:41.868Z,67.04
2018-06-30T07:07:11.151Z,66.69
2018-06-30T07:09:39.826Z,66.45
2018-06-30T07:12:10.342Z,66.43
2018-06-30T07:14:39.416Z,66.03
2018-06-30T07:17:08.346Z,66.19
2018-06-30T07:19:37.558Z,65.81
2018-06-30T07:22:06.341Z,65.33
2018-06-30T07:24:35.693Z,65.75
2018-06-30T07:27:04.536Z,64.07
2018-06-30T07:29:33.299Z,64.53
2018-06-30T07:32:02.144Z,64.39
2018-06-30T07:34:31.677Z,63.21
2018-06-30T07:37:00.650Z,64.75
2018-06-30T07:39:29.370Z,63.69
2018-06-30T07:41:58.108Z,64.21
2018-06-30T07:44:27.885Z,62.76
2018-06-30T07:46:56.542Z,63.20
2018-06-30T07:49:25.260Z,62.62
2018-06-30T07:51:54.628Z,62.28
2018-06-30T07:54:23.257Z,63.33
2018-06-30T07:56:51.915Z,61.88
2018-06-30T07:59:20.564Z,61.07
2018-06-30T08:01:49.298Z,60.74
2018-06-30T08:04:18.103Z,60.98
2018-06-30T08:06:46.823Z,59.43
2018-06-30T08:09:16.181Z,58.72
2018-06-30T08:11:44.852Z,59.48
2018-06-30T08:14:13.602Z,58.64
2018-06-30T08:16:42.489Z,55.84
2018-06-30T08:19:11.170Z,57.36
2018-06-30T08:21:39.905Z,57.75
2018-06-30T08:24:09.164Z,58.18
2018-06-30T08:26:37.994Z,57.37
2018-06-30T08:29:06.732Z,57.59
2018-06-30T08:31:35.413Z,56.25
2018-06-30T08:34:04.099Z,56.05
2018-06-30T08:36:33.005Z,56.87
2018-06-30T08:39:01.806Z,55.45
2018-06-30T08:41:30.750Z,55.66
2018-06-30T08:43:59.589Z,54.33
2018-06-30T08:46:28.388Z,54.67
2018-06-30T08:48:58.282Z,54.65
2018-06-30T08:51:26.967Z,53.22
2018-06-30T08:53:55.890Z,53.48
2018-06-30T08:56:24.638Z,53.18
2018-06-30T08:58:53.565Z,52.57
2018-06-30T09:01:22.294Z,51.34
2018-06-30T09:03:51.048Z,50.88
2018-06-30T09:06:19.822Z,52.67
2018-06-30T09:08:48.562Z,50.43
2018-06-30T09:11:17.288Z,51.00
2018-06-30T09:13:46.712Z,49.67
2018-06-30T09:16:16.200Z,49.50
2018-06-30T09:18:44.878Z,49.61
2018-06-30T09:21:13.635Z,51.31
2018-06-30T09:23:42.839Z,49.63
2018-06-30T09:26:11.712Z,49.79
2018-06-30T09:28:41.136Z,50.50
2018-06-30T09:31:10.645Z,49.96
2018-06-30T09:33:40.098Z,49.66
2018-06-30T09:36:09.572Z,47.74
2018-06-30T09:38:38.773Z,46.95
2018-06-30T09:41:08.882Z,47.34
2018-06-30T09:43:38.394Z,47.58
2018-06-30T09:46:07.574Z,48.82
2018-06-30T09:48:36.424Z,47.18
2018-06-30T09:51:06.189Z,45.72
2018-06-30T09:53:34.894Z,46.29
2018-06-30T09:56:04.356Z,46.98
2018-06-30T09:58:33.748Z,45.87
2018-06-30T10:01:07.445Z,46.83
2018-06-30T10:03:37.219Z,45.18
2018-06-30T10:06:07.164Z,46.21
2018-06-30T10:08:35.860Z,46.14
2018-06-30T10:11:04.631Z,45.30
2018-06-30T10:13:33.951Z,45.67
2018-06-30T10:16:02.781Z,45.97
2018-06-30T10:18:32.150Z,44.51
2018-06-30T10:21:01.690Z,44.10
2018-06-30T10:23:30.324Z,44.13
2018-06-30T10:25:59.743Z,44.64
2018-06-30T10:28:29.166Z,43.39
2018-06-30T10:30:58.046Z,43.07
2018-06-30T10:33:27.225Z,43.17
2018-06-30T10:35:56.968Z,43.06
2018-06-30T10:38:25.655Z,41.63
2018-06-30T10:40:54.436Z,41.00
2018-06-30T10:43:23.560Z,41.04
2018-06-30T10:45:52.247Z,39.27
2018-06-30T10:48:21.032Z,37.67
2018-06-30T10:50:49.684Z,39.67
2018-06-30T10:53:19.942Z,39.53
2018-06-30T10:55:48.647Z,37.96
2018-06-30T10:58:17.450Z,39.27
2018-06-30T11:00:46.103Z,38.27
2018-06-30T11:03:15.013Z,39.06
2018-06-30T11:05:50.009Z,37.61
2018-06-30T11:08:18.767Z,35.90
2018-06-30T11:10:47.469Z,34.85
2018-06-30T11:13:16.159Z,32.38
2018-06-30T11:15:45.317Z,34.15
2018-06-30T11:18:14.730Z,34.80
2018-06-30T11:20:44.423Z,36.49
2018-06-30T11:23:15.378Z,36.77
2018-06-30T11:25:45.299Z,36.68
2018-06-30T11:28:16.191Z,36.75
2018-06-30T11:30:45.978Z,35.86
2018-06-30T11:33:17.048Z,36.07
2018-06-30T11:35:47.275Z,34.22
2018-06-30T11:38:17.716Z,33.98
2018-06-30T11:40:46.584Z,34.44
2018-06-30T11:43:15.336Z,35.63
2018-06-30T11:45:44.260Z,34.85
2018-06-30T11:48:13.010Z,35.90
2018-06-30T11:50:44.167Z,33.31
2018-06-30T11:53:16.042Z,34.20
2018-06-30T11:55:51.390Z,34.43
2018-06-30T11:58:20.144Z,34.93
2018-06-30T12:00:48.977Z,34.45
2018-06-30T12:03:17.853Z,35.54
2018-06-30T12:05:48.453Z,36.22
2018-06-30T12:08:18.787Z,34.99
2018-06-30T12:10:48.955Z,33.80
2018-06-30T12:13:20.903Z,34.85
2018-06-30T12:15:49.867Z,33.65
2018-06-30T12:18:22.575Z,31.59
2018-06-30T12:20:51.359Z,31.32
2018-06-30T12:23:20.160Z,31.61
2018-06-30T12:25:49.387Z,31.20
2018-06-30T12:28:18.575Z,32.55
2018-06-30T12:30:48.019Z,31.60
2018-06-30T12:33:19.720Z,32.52
2018-06-30T12:35:48.445Z,32.21
2018-06-30T12:38:19.257Z,32.01
2018-06-30T12:40:49.203Z,30.66
2018-06-30T12:43:18.348Z,31.13
2018-06-30T12:45:47.838Z,29.75
2018-06-30T12:48:17.003Z,29.35
2018-06-30T12:50:47.002Z,29.58
2018-06-30T12:53:15.741Z,29.12
2018-06-30T12:55:48.214Z,29.12
2018-06-30T12:58:20.092Z,26.02
2018-06-30T13:00:49.242Z,24.43
2018-06-30T13:03:17.914Z,24.67
2018-06-30T13:05:46.608Z,25.22
2018-06-30T13:08:16.653Z,23.15
2018-06-30T13:10:46.919Z,23.17
2018-06-30T13:13:15.612Z,22.50
2018-06-30T13:15:44.269Z,20.74
2018-06-30T13:18:13.105Z,19.96
2018-06-30T13:20:41.831Z,19.73
2018-06-30T13:23:10.467Z,18.97
2018-06-30T13:25:39.142Z,19.09
2018-06-30T13:28:07.949Z,18.69
2018-06-30T13:30:36.821Z,18.84
2018-06-30T13:33:05.535Z,18.87
2018-06-30T13:35:34.188Z,19.30
2018-06-30T13:38:02.988Z,18.90
2018-06-30T13:40:31.618Z,18.13
2018-06-30T13:43:00.314Z,17.60
2018-06-30T13:45:29.153Z,18.12
2018-06-30T13:47:57.857Z,18.06
2018-06-30T13:50:27.540Z,18.63
2018-06-30T13:52:56.625Z,18.30
2018-06-30T13:55:26.645Z,20.43
2018-06-30T13:57:55.935Z,18.74
2018-06-30T14:00:26.147Z,19.54
2018-06-30T14:02:55.434Z,17.93
2018-06-30T14:05:24.767Z,18.74
2018-06-30T14:07:54.212Z,20.14
2018-06-30T14:10:23.601Z,18.24
2018-06-30T14:12:53.136Z,18.40
2018-06-30T14:15:21.870Z,19.02
2018-06-30T14:17:50.521Z,19.26
2018-06-30T14:20:19.211Z,19.59
2018-06-30T14:22:47.921Z,19.10
2018-06-30T14:25:17.090Z,19.46
2018-06-30T14:27:46.342Z,18.23
2018-06-30T14:30:15.780Z,19.12
2018-06-30T14:32:45.009Z,18.18
2018-06-30T14:35:14.193Z,19.57
2018-06-30T14:37:44.404Z,20.31
2018-06-30T14:40:18.060Z,20.73
2018-06-30T14:42:47.215Z,20.73
2018-06-30T14:45:16.618Z,20.74
2018-06-30T14:47:46.507Z,21.01
2018-06-30T14:50:15.852Z,21.80
2018-06-30T14:52:45.109Z,21.27
2018-06-30T14:55:14.937Z,20.67
2018-06-30T14:57:45.404Z,20.57
2018-06-30T15:00:15.132Z,20.74
2018-06-30T15:02:43.887Z,20.57
2018-06-30T15:05:12.747Z,20.92
2018-06-30T15:07:41.369Z,20.92
2018-06-30T15:10:10.777Z,20.12
2018-06-30T15:12:39.436Z,19.91
2018-06-30T15:15:09.041Z,20.27
2018-06-30T15:17:37.897Z,21.50
2018-06-30T15:20:06.822Z,21.97
2018-06-30T15:22:35.782Z,21.43
2018-06-30T15:25:05.499Z,20.59
2018-06-30T15:27:35.135Z,22.73
2018-06-30T15:30:05.590Z,23.71
2018-06-30T15:32:34.886Z,23.94
2018-06-30T15:35:03.727Z,22.98
2018-06-30T15:37:33.008Z,23.56
2018-06-30T15:40:02.360Z,24.10
2018-06-30T15:42:31.767Z,24.31
2018-06-30T15:45:03.701Z,23.97
2018-06-30T15:47:33.117Z,24.42
2018-06-30T15:50:02.606Z,24.25
2018-06-30T15:52:32.691Z,24.82
2018-06-30T15:55:01.992Z,24.95
2018-06-30T15:57:30.847Z,24.36
2018-06-30T15:59:59.588Z,25.55
2018-06-30T16:02:28.241Z,25.75
2018-06-30T16:04:57.243Z,25.61
2018-06-30T16:07:26.392Z,25.55
2018-06-30T16:09:55.161Z,25.56
2018-06-30T16:12:23.791Z,26.37
2018-06-30T16:14:52.478Z,27.41
2018-06-30T16:17:24.676Z,27.58
2018-06-30T16:19:53.351Z,28.10
2018-06-30T16:22:22.032Z,29.17
2018-06-30T16:24:50.775Z,29.03
2018-06-30T16:27:19.409Z,29.21
2018-06-30T16:29:48.303Z,29.60
2018-06-30T16:32:17.145Z,30.25
2018-06-30T16:34:46.422Z,30.41
2018-06-30T16:37:16.445Z,31.37
2018-06-30T16:39:45.858Z,31.08
2018-06-30T16:42:14.693Z,30.66
2018-06-30T16:44:43.979Z,30.92
2018-06-30T16:47:12.833Z,30.70
2018-06-30T16:49:43.014Z,31.28
2018-06-30T16:52:12.112Z,31.98
2018-06-30T16:54:41.115Z,31.58
2018-06-30T16:57:11.976Z,32.07
2018-06-30T16:59:41.232Z,32.03
2018-06-30T17:02:10.863Z,32.38
2018-06-30T17:04:40.302Z,32.93
2018-06-30T17:07:09.154Z,32.53
2018-06-30T17:09:38.033Z,32.78
2018-06-30T17:12:09.795Z,33.81
2018-06-30T17:14:38.764Z,33.77
2018-06-30T17:17:08.054Z,33.34
2018-06-30T17:19:36.791Z,33.20
2018-06-30T17:22:06.153Z,33.85
2018-06-30T17:24:34.849Z,34.60
2018-06-30T17:27:03.569Z,35.05
2018-06-30T17:29:32.327Z,34.57
2018-06-30T17:32:01.704Z,34.32
2018-06-30T17:34:30.525Z,34.71
2018-06-30T17:36:59.564Z,34.98
2018-06-30T17:39:28.220Z,35.63
2018-06-30T17:41:56.866Z,34.90
2018-06-30T17:44:25.700Z,35.28
2018-06-30T17:46:54.513Z,35.67
2018-06-30T17:49:23.413Z,34.98
2018-06-30T17:51:52.184Z,35.95
2018-06-30T17:54:20.977Z,36.13
2018-06-30T17:56:51.358Z,36.12
2018-06-30T17:59:20.107Z,36.75
2018-06-30T18:01:48.837Z,37.15
2018-06-30T18:04:17.649Z,37.00
2018-06-30T18:06:46.355Z,36.41
2018-06-30T18:09:15.304Z,37.27
2018-06-30T18:11:43.997Z,36.69
2018-06-30T18:14:12.854Z,37.21
2018-06-30T18:16:42.280Z,36.60
2018-06-30T18:19:11.011Z,36.61
2018-06-30T18:21:39.771Z,37.16
2018-06-30T18:24:09.482Z,37.20
2018-06-30T18:26:38.286Z,36.26
2018-06-30T18:29:07.611Z,37.14
2018-06-30T18:31:37.141Z,36.87
2018-06-30T18:34:05.947Z,37.92
2018-06-30T18:36:35.159Z,36.98
2018-06-30T18:39:04.632Z,37.24
2018-06-30T18:41:34.076Z,36.97
2018-06-30T18:44:02.787Z,36.97
2018-06-30T18:46:31.450Z,37.78
2018-06-30T18:49:00.171Z,37.43
2018-06-30T18:51:29.772Z,37.47
2018-06-30T18:53:59.057Z,37.99
2018-06-30T18:56:28.829Z,37.36
2018-06-30T18:58:58.149Z,38.01
2018-06-30T19:01:26.863Z,37.41
2018-06-30T19:03:57.497Z,38.09
2018-06-30T19:06:26.156Z,37.12
2018-06-30T19:08:54.917Z,38.04
2018-06-30T19:11:23.609Z,38.04
2018-06-30T19:13:52.369Z,38.21
2018-06-30T19:16:21.117Z,37.67
2018-06-30T19:18:50.390Z,37.65
2018-06-30T19:21:19.118Z,37.47
2018-06-30T19:23:47.901Z,37.28
2018-06-30T19:26:18.604Z,37.55
2018-06-30T19:28:47.377Z,36.96
2018-06-30T19:31:16.716Z,36.69
2018-06-30T19:33:45.647Z,37.40
2018-06-30T19:36:14.924Z,36.64
2018-06-30T19:38:44.429Z,37.04
2018-06-30T19:41:13.239Z,36.62
2018-06-30T19:43:42.555Z,37.38
2018-06-30T19:46:12.476Z,38.03
2018-06-30T19:48:41.193Z,37.63
2018-06-30T19:51:10.013Z,37.23
2018-06-30T19:53:38.772Z,37.64
2018-06-30T19:56:07.615Z,37.51
2018-06-30T19:58:36.663Z,37.04
2018-06-30T20:01:05.668Z,36.83
2018-06-30T20:03:34.613Z,36.85
2018-06-30T20:06:04.336Z,37.34
2018-06-30T20:08:33.319Z,36.46
2018-06-30T20:11:02.813Z,36.85
2018-06-30T20:13:31.965Z,37.58
2018-06-30T20:16:01.772Z,36.97
2018-06-30T20:18:30.852Z,37.47
2018-06-30T20:20:59.835Z,37.18
2018-06-30T20:23:29.112Z,37.48
2018-06-30T20:25:57.839Z,37.58
2018-06-30T20:28:26.979Z,37.96
2018-06-30T20:30:55.805Z,38.26
2018-06-30T20:33:24.639Z,38.65
2018-06-30T20:35:53.397Z,38.46
2018-06-30T20:38:22.400Z,38.15
2018-06-30T20:40:51.120Z,37.98
2018-06-30T20:43:19.899Z,38.05
2018-06-30T20:45:49.219Z,38.11
2018-06-30T20:48:18.193Z,39.92
2018-06-30T20:50:46.983Z,39.87
2018-06-30T20:53:15.892Z,39.83
2018-06-30T20:55:44.636Z,40.56
2018-06-30T20:58:13.423Z,38.67
2018-06-30T21:00:42.108Z,37.53
2018-06-30T21:03:13.155Z,37.90
2018-06-30T21:05:42.050Z,37.99
2018-06-30T21:08:11.250Z,37.20
2018-06-30T21:10:40.373Z,36.32
2018-06-30T21:13:10.702Z,36.22
2018-06-30T21:15:39.800Z,35.84
2018-06-30T21:18:09.741Z,35.46
2018-06-30T21:20:38.694Z,34.95
2018-06-30T21:23:07.558Z,35.10
2018-06-30T21:25:36.324Z,34.25
2018-06-30T21:28:05.416Z,33.82
2018-06-30T21:30:34.328Z,33.38
2018-06-30T21:33:03.035Z,33.33
2018-06-30T21:35:32.353Z,33.93
2018-06-30T21:38:01.048Z,32.39
2018-06-30T21:40:30.091Z,32.57
2018-06-30T21:42:58.943Z,31.25
2018-06-30T21:45:28.303Z,31.94
2018-06-30T21:47:57.073Z,31.31
2018-06-30T21:50:25.941Z,31.72
2018-06-30T21:52:54.635Z,31.40
2018-06-30T21:55:23.408Z,31.00
2018-06-30T21:57:52.127Z,30.94
2018-06-30T22:00:39.655Z,31.29
2018-06-30T22:03:08.451Z,31.21
2018-06-30T22:05:37.499Z,31.88
2018-06-30T22:08:06.361Z,31.24
2018-06-30T22:10:35.024Z,31.40
2018-06-30T22:13:04.472Z,31.05
2018-06-30T22:15:33.898Z,30.93
2018-06-30T22:18:02.896Z,30.51
2018-06-30T22:20:32.183Z,30.33
2018-06-30T22:23:01.760Z,30.37
2018-06-30T22:25:30.805Z,30.90
2018-06-30T22:27:59.700Z,30.56
2018-06-30T22:30:28.468Z,29.94
2018-06-30T22:32:57.333Z,30.18
2018-06-30T22:35:26.691Z,29.95
2018-06-30T22:37:56.107Z,30.49
2018-06-30T22:40:24.837Z,30.37
2018-06-30T22:42:53.756Z,30.65
2018-06-30T22:45:22.491Z,31.14
2018-06-30T22:47:51.218Z,30.89
2018-06-30T22:50:20.055Z,30.91
2018-06-30T22:52:48.756Z,30.93
2018-06-30T22:55:18.522Z,31.52
2018-06-30T22:57:51.345Z,31.66
2018-06-30T23:00:20.703Z,31.80
2018-06-30T23:02:49.452Z,31.84
2018-06-30T23:05:18.206Z,32.12
2018-06-30T23:07:47.896Z,32.53
2018-06-30T23:10:16.958Z,32.97
2018-06-30T23:12:45.714Z,32.39
2018-06-30T23:15:14.432Z,32.79
2018-06-30T23:17:43.084Z,33.03
2018-06-30T23:20:11.712Z,33.25
2018-06-30T23:22:51.374Z,33.76
2018-06-30T23:25:20.057Z,33.47
2018-06-30T23:27:48.795Z,33.95
2018-06-30T23:30:17.672Z,33.72
2018-06-30T23:32:46.320Z,34.14
2018-06-30T23:35:14.903Z,34.58
2018-06-30T23:37:43.599Z,34.97
2018-06-30T23:40:12.236Z,34.83
2018-06-30T23:42:41.006Z,34.94
2018-06-30T23:45:09.888Z,35.63
2018-06-30T23:47:38.617Z,35.31
2018-06-30T23:50:07.363Z,35.61
2018-06-30T23:52:37.415Z,35.79
2018-06-30T23:55:07.056Z,35.81
2018-06-30T23:57:35.633Z,36.13
